createdAt,value
2022-08-11T00:02:00.997Z,99635.06
2022-08-11T00:04:30.135Z,99630.13
2022-08-11T00:06:58.630Z,99639.16
2022-08-11T00:09:38.934Z,99634.63
2022-08-11T00:12:14.197Z,99634.97
2022-08-11T00:14:42.391Z,99629.75
2022-08-11T00:17:14.906Z,99624.19
2022-08-11T00:20:11.836Z,99627.91
2022-08-11T00:22:34.932Z,99615.69
2022-08-11T00:25:11.209Z,99633.19
2022-08-11T00:27:40.150Z,99619.09
2022-08-11T00:30:09.943Z,99626.13
2022-08-11T00:32:39.504Z,99627.03
2022-08-11T00:35:54.680Z,99624.63
2022-08-11T00:37:58.348Z,99622.41
2022-08-11T00:40:32.799Z,99628.94
2022-08-11T00:43:10.681Z,99635.50
2022-08-11T00:45:43.979Z,99637.13
2022-08-11T00:48:20.963Z,99631.56
2022-08-11T00:51:00.143Z,99625.41
2022-08-11T00:53:44.631Z,99623.88
2022-08-11T00:56:45.547Z,99623.41
2022-08-11T00:59:35.001Z,99627.28
2022-08-11T01:02:13.897Z,99630.66
2022-08-11T01:05:15.735Z,99632.13
2022-08-11T01:08:11.310Z,99622.84
2022-08-11T01:11:02.807Z,99612.56
2022-08-11T01:13:51.992Z,99633.88
2022-08-11T01:16:57.581Z,99634.03
2022-08-11T01:20:45.207Z,99623.09
2022-08-11T01:23:18.433Z,99640.63
2022-08-11T01:26:01.435Z,99636.56
2022-08-11T01:29:11.350Z,99627.84
2022-08-11T01:32:39.641Z,99630.78
2022-08-11T01:35:46.150Z,99633.19
2022-08-11T01:38:56.036Z,99630.94
2022-08-11T01:42:01.707Z,99635.84
2022-08-11T01:44:53.064Z,99640.22
2022-08-11T01:47:52.478Z,99636.81
2022-08-11T01:50:42.064Z,99628.53
2022-08-11T01:53:17.207Z,99643.69
2022-08-11T01:55:57.978Z,99638.25
2022-08-11T01:58:42.441Z,99636.28
2022-08-11T02:01:24.232Z,99640.84
2022-08-11T02:03:56.668Z,99635.78
2022-08-11T02:06:50.107Z,99643.41
2022-08-11T02:09:24.380Z,99637.31
2022-08-11T02:11:53.059Z,99639.06
2022-08-11T02:14:27.640Z,99641.72
2022-08-11T02:17:15.368Z,99636.06
2022-08-11T02:20:08.755Z,99647.97
2022-08-11T02:23:01.815Z,99641.47
2022-08-11T02:25:32.786Z,99617.75
2022-08-11T02:28:04.926Z,99633.41
2022-08-11T02:30:36.330Z,99628.56
2022-08-11T02:33:25.320Z,99626.63
2022-08-11T02:36:02.463Z,99638.72
2022-08-11T02:38:34.594Z,99633.06
2022-08-11T02:41:29.559Z,99631.88
2022-08-11T02:44:10.660Z,99631.06
2022-08-11T02:46:45.979Z,99621.31
2022-08-11T02:49:45.666Z,99629.81
2022-08-11T02:52:20.126Z,99627.41
2022-08-11T02:54:55.520Z,99632.72
2022-08-11T02:57:29.381Z,99631.06
2022-08-11T03:00:08.043Z,99632.91
2022-08-11T03:02:51.741Z,99627.34
2022-08-11T03:05:25.452Z,99625.03
2022-08-11T03:08:24.822Z,99619.38
2022-08-11T03:11:16.167Z,99616.66
2022-08-11T03:14:07.630Z,99628.09
2022-08-11T03:16:49.007Z,99625.31
2022-08-11T03:19:24.460Z,99630.25
2022-08-11T03:22:03.031Z,99627.28
2022-08-11T03:24:38.489Z,99624.69
2022-08-11T03:27:11.385Z,99625.75
2022-08-11T03:29:46.161Z,99613.63
2022-08-11T03:32:23.673Z,99620.84
2022-08-11T03:34:51.648Z,99628.66
2022-08-11T03:37:45.418Z,99632.56
2022-08-11T03:40:38.336Z,99633.28
2022-08-11T03:43:18.144Z,99635.50
2022-08-11T03:45:57.580Z,99631.38
2022-08-11T03:48:33.550Z,99621.00
2022-08-11T03:51:09.052Z,99630.78
2022-08-11T03:53:49.456Z,99627.97
2022-08-11T03:56:40.321Z,99624.28
2022-08-11T03:59:43.744Z,99624.91
2022-08-11T04:02:33.608Z,99618.22
2022-08-11T04:05:36.534Z,99617.41
2022-08-11T04:08:26.529Z,99623.19
2022-08-11T04:11:32.619Z,99617.97
2022-08-11T04:14:32.520Z,99625.47
2022-08-11T04:17:23.074Z,99623.84
2022-08-11T04:19:55.588Z,99633.56
2022-08-11T04:22:39.240Z,99623.84
2022-08-11T04:25:23.196Z,99638.28
2022-08-11T04:28:28.672Z,99644.88
2022-08-11T04:31:50.783Z,99630.78
2022-08-11T04:34:16.004Z,99635.13
2022-08-11T04:37:21.586Z,99631.53
2022-08-11T04:40:06.369Z,99635.81
2022-08-11T04:43:30.751Z,99633.44
2022-08-11T04:46:18.924Z,99633.25
2022-08-11T04:49:25.849Z,99638.88
2022-08-11T04:53:02.226Z,99640.75
2022-08-11T04:56:21.038Z,99641.81
2022-08-11T04:59:30.536Z,99646.72
2022-08-11T05:02:41.053Z,99634.00
2022-08-11T05:05:32.377Z,99657.13
2022-08-11T05:08:38.469Z,99647.31
2022-08-11T05:11:22.659Z,99657.31
2022-08-11T05:14:09.570Z,99659.09
2022-08-11T05:17:12.125Z,99657.78
2022-08-11T05:19:57.763Z,99655.81
2022-08-11T05:22:47.373Z,99668.75
2022-08-11T05:26:25.380Z,99669.56
2022-08-11T05:28:49.675Z,99665.31
2022-08-11T05:31:37.658Z,99674.81
2022-08-11T05:34:28.692Z,99675.47
2022-08-11T05:37:23.903Z,99669.53
2022-08-11T05:40:08.763Z,99654.28
2022-08-11T05:42:59.202Z,99667.19
2022-08-11T05:46:04.077Z,99646.03
2022-08-11T05:48:54.915Z,99662.44
2022-08-11T05:51:52.474Z,99666.47
2022-08-11T05:54:41.856Z,99659.84
2022-08-11T05:57:39.551Z,99656.34
2022-08-11T06:00:01.911Z,99644.50
2022-08-11T06:02:39.509Z,99661.44
2022-08-11T06:05:11.552Z,99650.78
2022-08-11T06:07:48.654Z,99668.34
2022-08-11T06:10:29.285Z,99665.16
2022-08-11T06:12:59.646Z,99660.81
2022-08-11T06:15:28.349Z,99648.00
2022-08-11T06:17:58.900Z,99654.41
2022-08-11T06:20:27.000Z,99659.00
2022-08-11T06:22:59.650Z,99662.66
2022-08-11T06:25:32.169Z,99659.91
2022-08-11T06:28:01.069Z,99646.19
2022-08-11T06:30:39.646Z,99651.19
2022-08-11T06:33:11.488Z,99647.59
2022-08-11T06:35:55.539Z,99647.66
2022-08-11T06:38:38.310Z,99641.72
2022-08-11T06:41:26.626Z,99648.94
2022-08-11T06:44:05.301Z,99650.59
2022-08-11T06:46:38.778Z,99647.41
2022-08-11T06:49:29.314Z,99651.84
2022-08-11T06:51:56.964Z,99651.56
2022-08-11T06:54:32.071Z,99646.53
2022-08-11T06:57:31.104Z,99638.50
2022-08-11T07:00:33.012Z,99656.16
2022-08-11T07:03:03.395Z,99650.00
2022-08-11T07:05:43.953Z,99656.28
2022-08-11T07:09:07.214Z,99649.34
2022-08-11T07:12:20.270Z,99652.84
2022-08-11T07:15:09.287Z,99647.16
2022-08-11T07:17:44.247Z,99643.53
2022-08-11T07:20:31.844Z,99642.97
2022-08-11T07:23:21.146Z,99637.09
2022-08-11T07:26:08.654Z,99649.50
2022-08-11T07:28:57.982Z,99637.34
2022-08-11T07:31:32.198Z,99640.66
2022-08-11T07:34:17.417Z,99645.44
2022-08-11T07:36:51.275Z,99642.47
2022-08-11T07:39:23.358Z,99643.72
2022-08-11T07:41:53.527Z,99641.78
2022-08-11T07:44:22.202Z,99647.72
2022-08-11T07:47:09.355Z,99644.50
2022-08-11T07:49:56.796Z,99641.97
2022-08-11T07:52:33.963Z,99642.16
2022-08-11T07:55:05.804Z,99635.34
2022-08-11T07:58:15.225Z,99631.28
2022-08-11T08:01:10.142Z,99641.81
2022-08-11T08:03:57.069Z,99637.91
2022-08-11T08:06:43.226Z,99642.06
2022-08-11T08:09:29.805Z,99634.94
2022-08-11T08:12:19.142Z,99641.13
2022-08-11T08:15:05.886Z,99643.25
2022-08-11T08:18:20.921Z,99636.69
2022-08-11T08:20:44.336Z,99627.59
2022-08-11T08:23:12.630Z,99636.00
2022-08-11T08:25:41.558Z,99626.06
2022-08-11T08:28:14.302Z,99619.66
2022-08-11T08:30:47.728Z,99629.91
2022-08-11T08:33:17.823Z,99632.94
2022-08-11T08:35:55.831Z,99632.31
2022-08-11T08:38:24.562Z,99638.88
2022-08-11T08:40:55.926Z,99618.47
2022-08-11T08:43:26.125Z,99631.97
2022-08-11T08:45:57.076Z,99636.97
2022-08-11T08:48:27.124Z,99627.81
2022-08-11T08:51:15.770Z,99628.91
2022-08-11T08:53:52.649Z,99635.75
2022-08-11T08:56:28.139Z,99628.50
2022-08-11T08:58:58.811Z,99623.66
2022-08-11T09:01:28.113Z,99627.16
2022-08-11T09:04:05.355Z,99618.97
2022-08-11T09:06:40.030Z,99615.19
2022-08-11T09:09:09.640Z,99622.09
2022-08-11T09:11:55.003Z,99620.59
2022-08-11T09:14:49.033Z,99617.44
2022-08-11T09:17:18.350Z,99619.56
2022-08-11T09:19:49.580Z,99617.63
2022-08-11T09:22:42.841Z,99620.25
2022-08-11T09:25:28.478Z,99612.16
2022-08-11T09:27:57.108Z,99617.38
2022-08-11T09:30:28.347Z,99611.28
2022-08-11T09:33:00.367Z,99601.97
2022-08-11T09:35:29.880Z,99610.16
2022-08-11T09:38:16.027Z,99601.03
2022-08-11T09:40:47.425Z,99586.88
2022-08-11T09:43:43.168Z,99608.25
2022-08-11T09:46:15.836Z,99616.25
2022-08-11T09:48:46.797Z,99600.13
2022-08-11T09:51:15.471Z,99576.13
2022-08-11T09:53:47.070Z,99590.31
2022-08-11T09:56:48.778Z,99575.84
2022-08-11T09:59:20.797Z,99587.00
2022-08-11T10:01:56.444Z,99564.38
2022-08-11T10:04:28.859Z,99574.06
2022-08-11T10:07:01.816Z,99565.34
2022-08-11T10:09:39.391Z,99572.00
2022-08-11T10:12:10.994Z,99570.38
2022-08-11T10:15:00.826Z,99570.31
2022-08-11T10:17:32.643Z,99560.66
2022-08-11T10:20:06.085Z,99569.44
2022-08-11T10:22:52.977Z,99573.41
2022-08-11T10:25:39.308Z,99563.97
2022-08-11T10:28:16.764Z,99556.38
2022-08-11T10:31:16.671Z,99553.34
2022-08-11T10:34:02.276Z,99564.13
2022-08-11T10:36:31.269Z,99571.94
2022-08-11T10:39:00.006Z,99585.81
2022-08-11T10:42:06.101Z,99578.53
2022-08-11T10:44:40.123Z,99568.41
2022-08-11T10:47:26.258Z,99565.19
2022-08-11T10:50:10.808Z,99550.56
2022-08-11T10:52:57.225Z,99545.03
2022-08-11T10:55:43.213Z,99548.81
2022-08-11T10:58:29.304Z,99550.69
2022-08-11T11:00:58.968Z,99541.78
2022-08-11T11:03:28.006Z,99554.09
2022-08-11T11:06:12.683Z,99566.41
2022-08-11T11:09:00.096Z,99568.31
2022-08-11T11:11:46.522Z,99560.31
2022-08-11T11:14:35.459Z,99557.13
2022-08-11T11:17:32.642Z,99577.81
2022-08-11T11:20:01.997Z,99572.38
2022-08-11T11:23:01.507Z,99568.56
2022-08-11T11:26:12.590Z,99589.69
2022-08-11T11:29:25.501Z,99595.84
2022-08-11T11:32:09.124Z,99591.69
2022-08-11T11:35:16.626Z,99591.75
2022-08-11T11:38:03.827Z,99592.66
2022-08-11T11:40:35.455Z,99580.56
2022-08-11T11:43:04.007Z,99569.81
2022-08-11T11:45:32.133Z,99571.81
2022-08-11T11:48:01.236Z,99570.25
2022-08-11T11:50:31.630Z,99562.56
2022-08-11T11:53:02.067Z,99558.91
2022-08-11T11:55:31.434Z,99548.34
2022-08-11T11:58:19.906Z,99542.31
2022-08-11T12:01:07.955Z,99548.50
2022-08-11T12:03:38.040Z,99544.63
2022-08-11T12:06:06.629Z,99538.84
2022-08-11T12:08:34.839Z,99550.47
2022-08-11T12:11:21.924Z,99534.38
2022-08-11T12:13:53.643Z,99532.00
2022-08-11T12:16:34.668Z,99531.91
2022-08-11T12:19:05.579Z,99533.25
2022-08-11T12:21:38.832Z,99521.22
2022-08-11T12:24:29.150Z,99527.34
2022-08-11T12:27:17.727Z,99516.56
2022-08-11T12:29:55.636Z,99521.88
2022-08-11T12:32:30.261Z,99506.91
2022-08-11T12:34:58.367Z,99508.13
2022-08-11T12:37:30.531Z,99488.28
2022-08-11T12:40:42.822Z,99500.13
2022-08-11T12:43:39.768Z,99497.66
2022-08-11T12:46:11.830Z,99491.25
2022-08-11T12:49:07.490Z,99477.16
2022-08-11T12:52:10.996Z,99484.47
2022-08-11T12:54:58.789Z,99499.81
2022-08-11T12:57:50.622Z,99491.31
2022-08-11T13:00:37.533Z,99486.88
2022-08-11T13:03:27.008Z,99470.25
2022-08-11T13:06:11.940Z,99496.19
2022-08-11T13:08:41.472Z,99501.84
2022-08-11T13:11:56.329Z,99495.78
2022-08-11T13:14:18.429Z,99493.34
2022-08-11T13:17:04.954Z,99499.03
2022-08-11T13:19:34.798Z,99502.69
2022-08-11T13:22:05.510Z,99507.53
2022-08-11T13:24:38.781Z,99495.69
2022-08-11T13:27:08.005Z,99508.94
2022-08-11T13:29:36.984Z,99493.75
2022-08-11T13:32:05.738Z,99498.63
2022-08-11T13:34:41.742Z,99507.56
2022-08-11T13:37:12.256Z,99506.28
2022-08-11T13:39:44.345Z,99509.19
2022-08-11T13:42:12.653Z,99493.22
2022-08-11T13:44:45.032Z,99483.84
2022-08-11T13:47:15.012Z,99476.03
2022-08-11T13:49:45.164Z,99495.25
2022-08-11T13:52:15.673Z,99491.88
2022-08-11T13:54:52.446Z,99496.47
2022-08-11T13:58:07.684Z,99501.00
2022-08-11T14:00:13.345Z,99492.50
2022-08-11T14:03:05.570Z,99490.53
2022-08-11T14:05:39.360Z,99492.53
2022-08-11T14:08:33.952Z,99490.91
2022-08-11T14:12:21.267Z,99497.38
2022-08-11T14:14:11.024Z,99490.91
2022-08-11T14:16:43.196Z,99479.19
2022-08-11T14:19:14.351Z,99482.34
2022-08-11T14:22:07.237Z,99475.44
2022-08-11T14:24:36.662Z,99475.41
2022-08-11T14:27:05.451Z,99471.66
2022-08-11T14:29:46.324Z,99457.38
2022-08-11T14:32:17.504Z,99473.97
2022-08-11T14:34:45.643Z,99481.59
2022-08-11T14:37:18.033Z,99487.66
2022-08-11T14:39:48.113Z,99486.84
2022-08-11T14:42:36.630Z,99479.66
2022-08-11T14:45:58.094Z,99468.84
2022-08-11T14:48:18.657Z,99486.78
2022-08-11T14:50:48.545Z,99474.72
2022-08-11T14:53:19.276Z,99485.25
2022-08-11T14:56:04.954Z,99481.16
2022-08-11T14:58:34.265Z,99484.38
2022-08-11T15:01:03.852Z,99486.44
2022-08-11T15:03:33.717Z,99476.28
2022-08-11T15:06:05.244Z,99486.34
2022-08-11T15:08:50.419Z,99479.78
2022-08-11T15:11:36.964Z,99462.69
2022-08-11T15:14:06.976Z,99466.31
2022-08-11T15:16:59.575Z,99467.16
2022-08-11T15:19:40.079Z,99470.81
2022-08-11T15:25:11.559Z,99482.69
2022-08-11T15:28:00.421Z,99477.44
2022-08-11T15:30:46.173Z,99482.69
2022-08-11T15:33:34.080Z,99485.59
2022-08-11T15:36:19.911Z,99481.50
2022-08-11T15:38:55.525Z,99480.69
2022-08-11T15:41:54.528Z,99479.47
2022-08-11T15:45:02.261Z,99461.59
2022-08-11T15:47:39.315Z,99473.78
2022-08-11T15:50:13.994Z,99462.78
2022-08-11T15:52:48.141Z,99467.28
2022-08-11T15:55:17.290Z,99468.53
2022-08-11T15:58:07.247Z,99465.00
2022-08-11T16:00:53.999Z,99459.25
2022-08-11T16:04:06.232Z,99465.38
2022-08-11T16:06:37.964Z,99458.56
2022-08-11T16:09:17.977Z,99462.59
2022-08-11T16:11:47.471Z,99458.53
2022-08-11T16:14:35.464Z,99456.13
2022-08-11T16:17:05.602Z,99456.53
2022-08-11T16:19:35.856Z,99460.97
2022-08-11T16:22:07.757Z,99452.47
2022-08-11T16:26:30.324Z,99451.66
2022-08-11T16:27:27.541Z,99450.06
2022-08-11T16:29:57.699Z,99452.09
2022-08-11T16:32:27.214Z,99444.41
2022-08-11T16:35:19.169Z,99446.81
2022-08-11T16:38:05.219Z,99455.31
2022-08-11T16:40:34.132Z,99439.56
2022-08-11T16:43:20.320Z,99441.59
2022-08-11T16:46:08.251Z,99452.50
2022-08-11T16:48:40.713Z,99454.03
2022-08-11T16:51:09.437Z,99445.91
2022-08-11T16:53:45.959Z,99466.94
2022-08-11T16:56:29.737Z,99451.91
2022-08-11T16:59:12.841Z,99453.78
2022-08-11T17:01:43.157Z,99452.00
2022-08-11T17:04:43.739Z,99459.13
2022-08-11T17:07:41.856Z,99454.06
2022-08-11T17:10:51.172Z,99452.22
2022-08-11T17:13:25.295Z,99466.03
2022-08-11T17:16:08.953Z,99460.94
2022-08-11T17:18:44.177Z,99456.75
2022-08-11T17:21:21.307Z,99439.25
2022-08-11T17:23:52.341Z,99452.53
2022-08-11T17:26:25.779Z,99447.66
2022-08-11T17:31:59.974Z,99436.59
2022-08-11T17:34:47.408Z,99433.22
2022-08-11T17:37:18.222Z,99435.25
2022-08-11T17:39:47.510Z,99435.72
2022-08-11T17:42:36.328Z,99425.09
2022-08-11T17:45:22.448Z,99433.50
2022-08-11T17:48:08.610Z,99431.81
2022-08-11T17:50:38.490Z,99430.53
2022-08-11T17:53:24.310Z,99418.63
2022-08-11T17:56:10.700Z,99434.03
2022-08-11T17:58:58.035Z,99428.28
2022-08-11T18:01:26.842Z,99432.97
2022-08-11T18:03:58.040Z,99438.25
2022-08-11T18:06:34.130Z,99438.47
2022-08-11T18:09:23.031Z,99440.41
2022-08-11T18:12:12.718Z,99447.50
2022-08-11T18:14:59.716Z,99441.66
2022-08-11T18:17:45.570Z,99440.38
2022-08-11T18:20:37.227Z,99446.31
2022-08-11T18:23:43.412Z,99442.94
2022-08-11T18:26:34.651Z,99435.88
2022-08-11T18:29:21.005Z,99439.66
2022-08-11T18:32:08.735Z,99443.47
2022-08-11T18:34:56.990Z,99441.84
2022-08-11T18:37:45.925Z,99445.09
2022-08-11T18:40:39.285Z,99443.03
2022-08-11T18:43:29.473Z,99446.97
2022-08-11T18:46:19.421Z,99449.53
2022-08-11T18:49:11.808Z,99449.69
2022-08-11T18:52:02.375Z,99459.31
2022-08-11T18:54:53.254Z,99443.81
2022-08-11T18:57:49.778Z,99453.13
2022-08-11T19:00:43.407Z,99453.31
2022-08-11T19:03:31.046Z,99435.34
2022-08-11T19:06:38.874Z,99457.75
2022-08-11T19:09:29.682Z,99461.09
2022-08-11T19:12:16.606Z,99450.16
2022-08-11T19:15:06.261Z,99461.75
2022-08-11T19:18:04.877Z,99466.19
2022-08-11T19:20:56.840Z,99470.88
2022-08-11T19:23:47.995Z,99460.59
2022-08-11T19:26:44.273Z,99450.91
2022-08-11T19:30:11.154Z,99461.94
2022-08-11T19:32:38.824Z,99462.22
2022-08-11T19:35:26.372Z,99455.63
2022-08-11T19:38:13.211Z,99465.66
2022-08-11T19:40:59.388Z,99455.97
2022-08-11T19:43:49.318Z,99459.03
2022-08-11T19:46:38.000Z,99448.88
2022-08-11T19:49:27.108Z,99459.75
2022-08-11T19:52:13.283Z,99465.78
2022-08-11T19:55:00.476Z,99458.78
2022-08-11T19:57:46.430Z,99468.34
2022-08-11T20:00:35.262Z,99470.59
2022-08-11T20:03:23.482Z,99461.63
2022-08-11T20:06:11.439Z,99464.41
2022-08-11T20:09:01.241Z,99445.34
2022-08-11T20:11:50.021Z,99457.72
2022-08-11T20:14:36.762Z,99466.66
2022-08-11T20:17:26.076Z,99448.00
2022-08-11T20:20:12.810Z,99450.97
2022-08-11T20:23:02.021Z,99450.31
2022-08-11T20:25:47.975Z,99449.91
2022-08-11T20:28:35.461Z,99455.50
2022-08-11T20:31:21.705Z,99452.25
2022-08-11T20:34:09.237Z,99453.88
2022-08-11T20:36:57.886Z,99447.00
2022-08-11T20:39:45.458Z,99456.69
2022-08-11T20:42:33.669Z,99447.47
2022-08-11T20:45:23.966Z,99457.13
2022-08-11T20:48:10.173Z,99454.47
2022-08-11T20:51:01.972Z,99470.31
2022-08-11T20:53:52.576Z,99460.41
2022-08-11T20:56:41.550Z,99464.13
2022-08-11T20:59:28.525Z,99467.16
2022-08-11T21:02:18.758Z,99456.91
2022-08-11T21:05:15.681Z,99465.56
2022-08-11T21:08:08.190Z,99461.94
2022-08-11T21:10:57.051Z,99466.59
2022-08-11T21:13:48.330Z,99462.75
2022-08-11T21:16:49.050Z,99464.38
2022-08-11T21:20:00.644Z,99456.94
2022-08-11T21:22:59.706Z,99462.31
2022-08-11T21:26:11.421Z,99462.75
2022-08-11T21:28:59.388Z,99464.59
2022-08-11T21:31:45.613Z,99459.59
2022-08-11T21:34:33.596Z,99470.91
2022-08-11T21:37:20.504Z,99467.16
2022-08-11T21:40:08.347Z,99464.56
2022-08-11T21:42:56.892Z,99453.53
2022-08-11T21:45:45.161Z,99468.91
2022-08-11T21:48:31.385Z,99465.50
2022-08-11T21:51:17.524Z,99465.06
2022-08-11T21:54:03.348Z,99461.91
2022-08-11T21:56:53.472Z,99459.66
2022-08-11T21:59:42.576Z,99451.91
2022-08-11T22:02:29.590Z,99468.00
2022-08-11T22:05:15.827Z,99455.16
2022-08-11T22:08:01.506Z,99461.19
2022-08-11T22:10:47.464Z,99460.41
2022-08-11T22:13:37.018Z,99464.47
2022-08-11T22:16:24.043Z,99458.84
2022-08-11T22:19:12.933Z,99454.47
2022-08-11T22:22:04.158Z,99457.88
2022-08-11T22:24:51.988Z,99456.28
2022-08-11T22:27:38.708Z,99466.28
2022-08-11T22:30:27.612Z,99463.09
2022-08-11T22:33:15.034Z,99460.59
2022-08-11T22:36:03.122Z,99455.00
2022-08-11T22:38:50.239Z,99452.84
2022-08-11T22:41:36.733Z,99450.13
2022-08-11T22:44:23.690Z,99442.16
2022-08-11T22:47:11.374Z,99445.34
2022-08-11T22:49:59.140Z,99445.03
2022-08-11T22:52:47.878Z,99442.97
2022-08-11T22:55:34.201Z,99447.78
2022-08-11T22:58:21.134Z,99440.63
2022-08-11T23:01:07.614Z,99436.75
2022-08-11T23:03:53.818Z,99443.94
2022-08-11T23:06:39.874Z,99454.41
2022-08-11T23:09:27.649Z,99452.66
2022-08-11T23:12:13.919Z,99442.56
2022-08-11T23:15:00.250Z,99454.50
2022-08-11T23:17:46.640Z,99428.44
2022-08-11T23:20:45.949Z,99441.34
2022-08-11T23:23:41.079Z,99431.13
2022-08-11T23:26:29.365Z,99431.41
2022-08-11T23:29:16.539Z,99425.78
2022-08-11T23:32:02.307Z,99425.25
2022-08-11T23:35:04.615Z,99429.16
2022-08-11T23:38:00.048Z,99419.69
2022-08-11T23:40:45.823Z,99415.31
2022-08-11T23:43:39.456Z,99429.59
2022-08-11T23:46:24.916Z,99421.84
2022-08-11T23:49:12.367Z,99425.19
2022-08-11T23:51:58.497Z,99424.03
2022-08-11T23:54:44.370Z,99430.94
2022-08-11T23:57:29.950Z,99425.03
